Reynard, Texas
Current Conditions -  °F | °C
As of 12:15 PM on Thursday 30 Oct 2014 (Local Time) from KDKR Reporting Station
Clear Clear  
Wind Chill: 73°   Ceiling: Unl
Heat Index: 73°   Visibility: 10mi
Dew Point: 48°   Wind: 0mph
Humidity: 41%   Direction: NA
Pressure: 30.19"   Gusts: NA
Location:  31.4982°N, 95.4177°W
Report Text: KDKR 301715Z AUTO 00000KT 10SM CLR 23/09 A3019 RMK AO2
Loading
Personal Weather Stations






























Interactive Weather Map
Tropical Storm Tracking
New forecast layout! Learn more

10-Day Weather Forecast

Advertisements
Track Severe Weather on mobile